createdAt,value
2018-02-08T00:00:55.964Z,97215.87
2018-02-08T00:03:23.505Z,97216.25
2018-02-08T00:05:51.258Z,97213.81
2018-02-08T00:08:18.796Z,97225.98
2018-02-08T00:10:46.331Z,97222.12
2018-02-08T00:13:13.882Z,97219.23
2018-02-08T00:15:41.402Z,97220.88
2018-02-08T00:18:09.158Z,97216.28
2018-02-08T00:20:36.793Z,97224.19
2018-02-08T00:23:04.318Z,97221.27
2018-02-08T00:25:31.861Z,97219.56
2018-02-08T00:27:59.376Z,97216.31
2018-02-08T00:30:27.058Z,97222.12
2018-02-08T00:32:54.583Z,97218.34
2018-02-08T00:35:22.148Z,97218.47
2018-02-08T00:37:49.693Z,97215.00
2018-02-08T00:40:17.233Z,97217.98
2018-02-08T00:42:45.059Z,97221.27
2018-02-08T00:45:12.610Z,97218.76
2018-02-08T00:47:40.138Z,97215.03
2018-02-08T00:50:07.718Z,97212.98
2018-02-08T00:52:35.235Z,97215.09
2018-02-08T00:55:02.812Z,97218.37
2018-02-08T00:57:30.338Z,97210.92
2018-02-08T00:59:57.861Z,97215.95
2018-02-08T01:02:25.403Z,97223.41
2018-02-08T01:04:52.929Z,97219.59
2018-02-08T01:07:20.490Z,97223.73
2018-02-08T01:09:47.997Z,97227.20
2018-02-08T01:12:15.525Z,97226.72
2018-02-08T01:14:43.078Z,97221.33
2018-02-08T01:17:10.600Z,97225.88
2018-02-08T01:19:38.242Z,97224.25
2018-02-08T01:22:05.757Z,97223.80
2018-02-08T01:24:33.269Z,97214.44
2018-02-08T01:27:00.821Z,97216.02
2018-02-08T01:29:28.334Z,97224.25
2018-02-08T01:31:56.054Z,97224.22
2018-02-08T01:34:23.578Z,97219.72
2018-02-08T01:36:51.099Z,97219.27
2018-02-08T01:39:18.645Z,97224.22
2018-02-08T01:41:46.208Z,97222.55
2018-02-08T01:44:13.767Z,97225.50
2018-02-08T01:46:41.318Z,97226.33
2018-02-08T01:49:08.839Z,97227.28
2018-02-08T01:51:36.381Z,97226.42
2018-02-08T01:54:03.902Z,97230.98
2018-02-08T01:56:31.633Z,97220.61
2018-02-08T01:58:59.153Z,97227.64
2018-02-08T02:01:26.670Z,97216.86
2018-02-08T02:03:54.223Z,97218.28
2018-02-08T02:06:21.746Z,97221.35
2018-02-08T02:08:49.426Z,97219.69
2018-02-08T02:11:16.950Z,97219.78
2018-02-08T02:13:44.460Z,97221.35
2018-02-08T02:16:12.001Z,97215.12
2018-02-08T02:18:39.518Z,97217.18
2018-02-08T02:21:07.227Z,97209.75
2018-02-08T02:23:34.751Z,97211.00
2018-02-08T02:26:02.270Z,97211.66
2018-02-08T02:28:29.814Z,97213.30
2018-02-08T02:30:57.348Z,97219.91
2018-02-08T02:33:25.023Z,97210.30
2018-02-08T02:35:52.550Z,97214.52
2018-02-08T02:38:20.107Z,97218.67
2018-02-08T02:40:47.654Z,97220.75
2018-02-08T02:43:15.179Z,97219.05
2018-02-08T02:45:42.913Z,97225.25
2018-02-08T02:48:10.433Z,97226.92
2018-02-08T02:50:37.951Z,97222.34
2018-02-08T02:53:05.497Z,97228.26
2018-02-08T02:55:33.029Z,97223.23
2018-02-08T02:58:00.605Z,97229.90
2018-02-08T03:00:28.188Z,97230.81
2018-02-08T03:02:55.676Z,97231.12
2018-02-08T03:05:23.226Z,97229.95
2018-02-08T03:07:50.746Z,97230.40
2018-02-08T03:10:18.477Z,97228.70
2018-02-08T03:12:45.994Z,97230.31
2018-02-08T03:15:13.509Z,97235.34
2018-02-08T03:17:41.514Z,97236.19
2018-02-08T03:20:09.021Z,97235.30
2018-02-08T03:22:36.917Z,97236.55
2018-02-08T03:25:04.443Z,97240.38
2018-02-08T03:27:31.962Z,97239.11
2018-02-08T03:29:59.505Z,97239.97
2018-02-08T03:32:27.031Z,97236.59
2018-02-08T03:34:54.817Z,97238.34
2018-02-08T03:37:22.339Z,97239.55
2018-02-08T03:39:49.856Z,97242.49
2018-02-08T03:42:17.405Z,97247.86
2018-02-08T03:44:44.926Z,97250.45
2018-02-08T03:47:12.709Z,97245.97
2018-02-08T03:49:40.230Z,97256.80
2018-02-08T03:52:07.758Z,97251.33
2018-02-08T03:54:35.306Z,97251.72
2018-02-08T03:57:02.822Z,97258.31
2018-02-08T03:59:30.381Z,97263.30
2018-02-08T04:01:57.898Z,97263.38
2018-02-08T04:04:25.422Z,97257.95
2018-02-08T04:06:52.973Z,97261.68
2018-02-08T04:09:20.488Z,97273.87
2018-02-08T04:11:48.209Z,97276.00
2018-02-08T04:14:15.725Z,97283.98
2018-02-08T04:16:43.246Z,97276.88
2018-02-08T04:19:10.794Z,97281.58
2018-02-08T04:21:38.316Z,97288.23
2018-02-08T04:24:06.105Z,97288.84
2018-02-08T04:26:33.658Z,97292.91
2018-02-08T04:29:01.169Z,97292.42
2018-02-08T04:31:28.717Z,97295.34
2018-02-08T04:33:56.259Z,97294.88
2018-02-08T04:36:23.822Z,97295.72
2018-02-08T04:39:03.048Z,97298.66
2018-02-08T04:44:45.609Z,97303.64
2018-02-08T04:47:29.917Z,97305.38
2018-02-08T04:49:57.455Z,97312.91
2018-02-08T04:52:24.970Z,97309.63
2018-02-08T04:54:52.518Z,97318.75
2018-02-08T04:57:20.034Z,97313.76
2018-02-08T04:59:47.676Z,97309.52
2018-02-08T05:02:15.988Z,97312.50
2018-02-08T05:04:43.513Z,97311.36
2018-02-08T05:07:11.078Z,97322.12
2018-02-08T05:09:38.598Z,97316.38
2018-02-08T05:12:06.145Z,97322.12
2018-02-08T05:14:33.666Z,97320.17
2018-02-08T05:17:01.187Z,97331.34
2018-02-08T05:19:28.728Z,97328.02
2018-02-08T05:21:56.265Z,97327.60
2018-02-08T05:24:23.835Z,97331.30
2018-02-08T05:26:51.358Z,97331.76
2018-02-08T05:29:18.885Z,97333.82
2018-02-08T05:31:46.439Z,97337.12
2018-02-08T05:34:13.962Z,97336.34
2018-02-08T05:36:41.717Z,97342.98
2018-02-08T05:39:09.228Z,97342.22
2018-02-08T05:41:36.746Z,97343.05
2018-02-08T05:44:04.298Z,97341.41
2018-02-08T05:46:31.813Z,97343.88
2018-02-08T05:48:59.364Z,97351.42
2018-02-08T05:51:26.912Z,97349.41
2018-02-08T05:53:54.440Z,97347.25
2018-02-08T05:56:21.977Z,97346.80
2018-02-08T05:58:49.497Z,97348.08
2018-02-08T06:01:17.058Z,97353.48
2018-02-08T06:03:44.573Z,97351.88
2018-02-08T06:06:12.094Z,97360.20
2018-02-08T06:08:39.641Z,97355.63
2018-02-08T06:11:07.157Z,97358.16
2018-02-08T06:13:34.897Z,97366.47
2018-02-08T06:16:02.439Z,97360.21
2018-02-08T06:18:29.973Z,97366.08
2018-02-08T06:20:57.517Z,97366.91
2018-02-08T06:23:25.046Z,97363.98
2018-02-08T06:25:52.905Z,97370.23
2018-02-08T06:28:20.429Z,97368.55
2018-02-08T06:30:47.954Z,97370.22
2018-02-08T06:33:15.512Z,97366.05
2018-02-08T06:35:43.035Z,97368.98
2018-02-08T06:38:10.801Z,97375.66
2018-02-08T06:40:38.329Z,97376.91
2018-02-08T06:43:05.862Z,97369.81
2018-02-08T06:45:33.409Z,97373.16
2018-02-08T06:48:00.928Z,97376.09
2018-02-08T06:50:28.599Z,97377.33
2018-02-08T06:52:56.117Z,97379.84
2018-02-08T06:55:23.649Z,97383.59
2018-02-08T06:57:51.210Z,97386.89
2018-02-08T07:00:18.729Z,97389.39
2018-02-08T07:02:46.389Z,97394.81
2018-02-08T07:05:13.938Z,97392.75
2018-02-08T07:07:41.457Z,97396.08
2018-02-08T07:10:09.034Z,97407.71
2018-02-08T07:12:36.561Z,97401.48
2018-02-08T07:15:04.109Z,97414.78
2018-02-08T07:17:31.629Z,97420.60
2018-02-08T07:19:59.186Z,97423.10
2018-02-08T07:22:26.730Z,97424.36
2018-02-08T07:24:54.249Z,97419.38
2018-02-08T07:27:21.790Z,97421.84
2018-02-08T07:29:49.305Z,97425.20
2018-02-08T07:32:17.205Z,97424.36
2018-02-08T07:34:44.754Z,97430.58
2018-02-08T07:37:12.269Z,97426.03
2018-02-08T07:39:39.820Z,97429.34
2018-02-08T07:42:07.338Z,97429.77
2018-02-08T07:44:34.997Z,97432.27
2018-02-08T07:47:02.523Z,97441.02
2018-02-08T07:49:30.050Z,97437.27
2018-02-08T07:51:57.619Z,97438.08
2018-02-08T07:54:25.138Z,97443.08
2018-02-08T07:56:52.893Z,97435.58
2018-02-08T07:59:20.413Z,97441.41
2018-02-08T08:01:47.929Z,97438.49
2018-02-08T08:04:15.482Z,97440.17
2018-02-08T08:06:43.002Z,97437.25
2018-02-08T08:09:10.798Z,97445.16
2018-02-08T08:11:38.317Z,97438.08
2018-02-08T08:14:05.838Z,97430.97
2018-02-08T08:16:33.382Z,97434.72
2018-02-08T08:19:00.897Z,97432.20
2018-02-08T08:21:28.458Z,97435.89
2018-02-08T08:23:55.974Z,97439.56
2018-02-08T08:26:23.485Z,97438.67
2018-02-08T08:28:51.038Z,97435.21
2018-02-08T08:31:18.558Z,97434.20
2018-02-08T08:33:46.281Z,97432.48
2018-02-08T08:36:13.798Z,97431.97
2018-02-08T08:38:41.317Z,97436.33
2018-02-08T08:41:08.866Z,97433.25
2018-02-08T08:43:36.397Z,97440.93
2018-02-08T08:46:04.183Z,97445.82
2018-02-08T08:48:31.773Z,97452.03
2018-02-08T08:50:59.290Z,97451.70
2018-02-08T08:53:26.830Z,97452.73
2018-02-08T08:55:54.350Z,97460.50
2018-02-08T08:58:22.061Z,97461.09
2018-02-08T09:00:49.594Z,97457.83
2018-02-08T09:03:17.104Z,97456.09
2018-02-08T09:05:44.660Z,97450.89
2018-02-08T09:08:12.187Z,97453.49
2018-02-08T09:10:39.973Z,97462.12
2018-02-08T09:13:07.495Z,97463.18
2018-02-08T09:15:35.012Z,97462.05
2018-02-08T09:18:02.608Z,97463.93
2018-02-08T09:20:30.099Z,97471.59
2018-02-08T09:22:57.981Z,97469.97
2018-02-08T09:25:25.506Z,97468.99
2018-02-08T09:27:53.040Z,97476.12
2018-02-08T09:30:20.619Z,97479.38
2018-02-08T09:32:48.177Z,97481.10
2018-02-08T09:35:15.748Z,97479.92
2018-02-08T09:37:43.283Z,97486.74
2018-02-08T09:40:10.797Z,97488.38
2018-02-08T09:42:38.985Z,97482.26
2018-02-08T09:45:06.512Z,97484.77
2018-02-08T09:47:34.081Z,97486.83
2018-02-08T09:50:01.614Z,97482.30
2018-02-08T09:52:29.189Z,97484.39
2018-02-08T09:54:56.795Z,97482.27
2018-02-08T09:57:24.346Z,97486.17
2018-02-08T09:59:51.907Z,97488.41
2018-02-08T10:02:19.433Z,97493.16
2018-02-08T10:04:46.970Z,97486.72
2018-02-08T10:07:14.522Z,97484.83
2018-02-08T10:09:42.035Z,97489.47
2018-02-08T10:12:09.786Z,97495.09
2018-02-08T10:14:37.423Z,97494.33
2018-02-08T10:17:05.001Z,97494.04
2018-02-08T10:19:32.525Z,97492.33
2018-02-08T10:22:00.958Z,97494.37
2018-02-08T10:24:28.522Z,97493.49
2018-02-08T10:26:56.048Z,97491.83
2018-02-08T10:29:23.566Z,97491.66
2018-02-08T10:31:51.125Z,97497.17
2018-02-08T10:34:18.649Z,97492.83
2018-02-08T10:36:46.601Z,97496.92
2018-02-08T10:39:14.125Z,97491.80
2018-02-08T10:41:41.757Z,97503.28
2018-02-08T10:44:09.319Z,97504.27
2018-02-08T10:46:36.960Z,97501.37
2018-02-08T10:49:04.722Z,97502.69
2018-02-08T10:51:32.245Z,97508.78
2018-02-08T10:53:59.821Z,97505.15
2018-02-08T10:56:27.398Z,97507.44
2018-02-08T10:58:54.952Z,97508.65
2018-02-08T11:01:22.921Z,97504.62
2018-02-08T11:03:50.455Z,97499.93
2018-02-08T11:06:18.155Z,97495.92
2018-02-08T11:08:45.715Z,97493.21
2018-02-08T11:11:13.258Z,97496.44
2018-02-08T11:13:41.012Z,97500.05
2018-02-08T11:16:08.534Z,97492.83
2018-02-08T11:18:36.050Z,97496.30
2018-02-08T11:21:03.614Z,97482.81
2018-02-08T11:23:31.130Z,97481.05
2018-02-08T11:25:58.694Z,97479.66
2018-02-08T11:28:26.223Z,97482.39
2018-02-08T11:30:54.035Z,97474.45
2018-02-08T11:33:21.577Z,97476.28
2018-02-08T11:35:49.165Z,97477.63
2018-02-08T11:38:16.922Z,97473.62
2018-02-08T11:40:44.445Z,97471.86
2018-02-08T11:43:11.999Z,97474.92
2018-02-08T11:45:39.555Z,97473.83
2018-02-08T11:48:07.094Z,97476.01
2018-02-08T11:50:34.942Z,97473.09
2018-02-08T11:53:02.481Z,97474.48
2018-02-08T11:55:30.023Z,97474.18
2018-02-08T11:57:57.606Z,97476.20
2018-02-08T12:00:25.129Z,97468.34
2018-02-08T12:02:52.687Z,97470.06
2018-02-08T12:05:20.210Z,97464.33
2018-02-08T12:07:47.741Z,97462.05
2018-02-08T12:10:15.296Z,97466.69
2018-02-08T12:12:42.843Z,97466.69
2018-02-08T12:15:10.607Z,97461.13
2018-02-08T12:17:38.138Z,97465.33
2018-02-08T12:20:05.665Z,97468.88
2018-02-08T12:22:33.225Z,97465.66
2018-02-08T12:25:00.750Z,97458.78
2018-02-08T12:27:28.523Z,97456.33
2018-02-08T12:29:56.083Z,97451.53
2018-02-08T12:32:23.609Z,97448.47
2018-02-08T12:34:51.170Z,97448.20
2018-02-08T12:37:18.692Z,97453.26
2018-02-08T12:39:46.702Z,97446.58
2018-02-08T12:42:14.286Z,97444.14
2018-02-08T12:44:42.159Z,97444.47
2018-02-08T12:47:09.766Z,97439.19
2018-02-08T12:49:37.291Z,97436.95
2018-02-08T12:52:05.022Z,97444.61
2018-02-08T12:54:32.555Z,97436.15
2018-02-08T12:57:00.096Z,97440.41
2018-02-08T12:59:28.545Z,97439.86
2018-02-08T13:01:56.088Z,97444.59
2018-02-08T13:04:23.666Z,97444.54
2018-02-08T13:06:51.190Z,97442.53
2018-02-08T13:09:18.791Z,97446.66
2018-02-08T13:11:46.349Z,97446.14
2018-02-08T13:14:13.980Z,97445.20
2018-02-08T13:16:41.741Z,97447.08
2018-02-08T13:19:09.270Z,97446.91
2018-02-08T13:21:36.798Z,97439.16
2018-02-08T13:24:04.642Z,97436.73
2018-02-08T13:26:32.299Z,97438.91
2018-02-08T13:29:00.986Z,97436.14
2018-02-08T13:31:43.603Z,97436.50
2018-02-08T13:34:11.322Z,97437.89
2018-02-08T13:36:39.003Z,97437.79
2018-02-08T13:39:06.688Z,97437.10
2018-02-08T13:41:34.350Z,97442.65
2018-02-08T13:44:01.902Z,97437.64
2018-02-08T13:46:29.772Z,97447.14
2018-02-08T13:48:58.824Z,97442.41
2018-02-08T13:51:32.861Z,97444.16
2018-02-08T13:54:01.709Z,97449.48
2018-02-08T13:56:37.834Z,97447.81
2018-02-08T14:02:14.788Z,97439.33
2018-02-08T14:04:42.326Z,97443.82
2018-02-08T14:07:09.869Z,97444.09
2018-02-08T14:09:37.454Z,97442.10
2018-02-08T14:12:05.005Z,97435.92
2018-02-08T14:14:32.587Z,97442.28
2018-02-08T14:17:00.109Z,97437.11
2018-02-08T14:19:27.643Z,97436.52
2018-02-08T14:21:55.202Z,97443.30
2018-02-08T14:24:23.086Z,97437.38
2018-02-08T14:26:50.645Z,97443.98
2018-02-08T14:29:18.159Z,97444.77
2018-02-08T14:31:45.685Z,97444.82
2018-02-08T14:34:13.237Z,97443.85
2018-02-08T14:36:40.763Z,97445.41
2018-02-08T14:39:08.334Z,97451.66
2018-02-08T14:41:35.853Z,97452.52
2018-02-08T14:44:03.393Z,97454.28
2018-02-08T14:46:30.933Z,97445.01
2018-02-08T14:48:58.466Z,97448.25
2018-02-08T14:51:26.205Z,97451.47
2018-02-08T14:53:53.781Z,97450.64
2018-02-08T14:56:21.374Z,97446.68
2018-02-08T14:58:48.932Z,97449.37
2018-02-08T15:01:16.474Z,97446.60
2018-02-08T15:03:44.597Z,97446.87
2018-02-08T15:06:12.203Z,97443.19
2018-02-08T15:08:40.058Z,97443.98
2018-02-08T15:11:08.028Z,97443.35
2018-02-08T15:13:36.290Z,97444.53
2018-02-08T15:16:04.581Z,97449.35
2018-02-08T15:18:33.448Z,97450.23
2018-02-08T15:21:01.341Z,97451.16
2018-02-08T15:23:29.101Z,97442.92
2018-02-08T15:25:56.822Z,97444.64
2018-02-08T15:28:24.922Z,97454.39
2018-02-08T15:30:52.605Z,97453.14
2018-02-08T15:33:20.497Z,97444.84
2018-02-08T15:35:48.432Z,97446.57
2018-02-08T15:38:16.196Z,97449.08
2018-02-08T15:40:44.121Z,97455.36
2018-02-08T15:43:11.934Z,97455.84
2018-02-08T15:45:40.003Z,97452.11
2018-02-08T15:48:07.972Z,97457.20
2018-02-08T15:50:36.245Z,97457.05
2018-02-08T15:53:05.006Z,97458.54
2018-02-08T15:55:32.694Z,97456.34
2018-02-08T15:58:00.459Z,97453.47
2018-02-08T16:00:28.429Z,97459.93
2018-02-08T16:02:56.191Z,97460.72
2018-02-08T16:05:24.776Z,97466.12
2018-02-08T16:07:52.641Z,97470.33
2018-02-08T16:10:20.303Z,97467.45
2018-02-08T16:12:48.684Z,97472.56
2018-02-08T16:15:16.509Z,97472.05
2018-02-08T16:17:44.414Z,97469.94
2018-02-08T16:20:12.282Z,97466.98
2018-02-08T16:22:40.152Z,97471.83
2018-02-08T16:25:07.803Z,97461.77
2018-02-08T16:27:35.613Z,97471.77
2018-02-08T16:30:03.633Z,97476.81
2018-02-08T16:32:31.614Z,97476.43
2018-02-08T16:34:59.301Z,97481.16
2018-02-08T16:37:27.306Z,97481.16
2018-02-08T16:39:55.213Z,97483.88
2018-02-08T16:42:23.182Z,97479.97
2018-02-08T16:44:51.049Z,97485.08
2018-02-08T16:47:19.122Z,97490.92
2018-02-08T16:49:47.265Z,97493.53
2018-02-08T16:52:17.004Z,97492.75
2018-02-08T16:54:45.177Z,97492.67
2018-02-08T16:57:13.248Z,97500.16
2018-02-08T16:59:41.080Z,97497.69
2018-02-08T17:02:09.084Z,97497.69
2018-02-08T17:04:37.053Z,97501.45
2018-02-08T17:07:05.942Z,97502.23
2018-02-08T17:09:33.912Z,97505.91
2018-02-08T17:12:02.210Z,97503.88
2018-02-08T17:14:29.953Z,97510.59
2018-02-08T17:16:57.502Z,97509.37
2018-02-08T17:19:25.125Z,97514.97
2018-02-08T17:21:53.041Z,97512.86
2018-02-08T17:24:20.804Z,97519.50
2018-02-08T17:26:48.878Z,97529.13
2018-02-08T17:29:16.741Z,97516.19
2018-02-08T17:31:44.609Z,97513.66
2018-02-08T17:34:12.437Z,97513.22
2018-02-08T17:36:40.545Z,97510.26
2018-02-08T17:39:08.992Z,97513.97
2018-02-08T17:41:36.997Z,97511.88
2018-02-08T17:44:04.969Z,97506.09
2018-02-08T17:46:32.836Z,97504.41
2018-02-08T17:49:01.839Z,97509.02
2018-02-08T17:51:29.792Z,97507.33
2018-02-08T17:53:57.675Z,97505.67
2018-02-08T17:56:25.936Z,97509.86
2018-02-08T17:58:54.211Z,97511.06
2018-02-08T18:01:22.180Z,97514.82
2018-02-08T18:03:50.149Z,97516.06
2018-02-08T18:06:18.804Z,97516.86
2018-02-08T18:08:47.521Z,97517.77
2018-02-08T18:11:15.387Z,97516.48
2018-02-08T18:13:43.254Z,97517.36
2018-02-08T18:16:11.633Z,97523.59
2018-02-08T18:18:39.600Z,97518.19
2018-02-08T18:21:07.900Z,97521.56
2018-02-08T18:23:35.845Z,97519.91
2018-02-08T18:26:03.847Z,97523.72
2018-02-08T18:28:31.783Z,97523.69
2018-02-08T18:30:59.689Z,97525.66
2018-02-08T18:33:27.826Z,97525.70
2018-02-08T18:35:56.101Z,97517.83
2018-02-08T18:38:23.966Z,97523.73
2018-02-08T18:40:51.936Z,97525.99
2018-02-08T18:43:19.802Z,97526.00
2018-02-08T18:45:47.873Z,97527.69
2018-02-08T18:48:15.750Z,97533.53
2018-02-08T18:50:43.574Z,97531.45
2018-02-08T18:53:11.575Z,97531.03
2018-02-08T18:55:39.335Z,97537.23
2018-02-08T18:58:07.512Z,97536.47
2018-02-08T19:00:35.768Z,97535.50
2018-02-08T19:03:03.757Z,97529.38
2018-02-08T19:05:31.600Z,97528.11
2018-02-08T19:07:59.401Z,97531.50
2018-02-08T19:10:27.340Z,97523.17
2018-02-08T19:12:55.736Z,97524.87
2018-02-08T19:15:25.670Z,97516.19
2018-02-08T19:17:53.590Z,97522.02
2018-02-08T19:20:21.408Z,97524.13
2018-02-08T19:22:50.597Z,97517.09
2018-02-08T19:25:18.549Z,97518.78
2018-02-08T19:27:46.459Z,97520.47
2018-02-08T19:30:14.385Z,97520.89
2018-02-08T19:32:42.254Z,97517.98
2018-02-08T19:35:10.861Z,97521.75
2018-02-08T19:37:39.214Z,97524.25
2018-02-08T19:40:08.104Z,97523.41
2018-02-08T19:42:38.024Z,97515.50
2018-02-08T19:45:06.070Z,97513.42
2018-02-08T19:47:34.201Z,97513.84
2018-02-08T19:50:03.462Z,97513.03
2018-02-08T19:52:31.466Z,97514.69
2018-02-08T19:54:59.463Z,97514.28
2018-02-08T19:57:27.782Z,97510.92
2018-02-08T19:59:57.167Z,97521.34
2018-02-08T20:02:25.047Z,97517.20
2018-02-08T20:04:53.097Z,97514.67
2018-02-08T20:07:21.066Z,97509.27
2018-02-08T20:09:49.465Z,97513.02
2018-02-08T20:12:17.642Z,97511.36
2018-02-08T20:14:51.046Z,97518.02
2018-02-08T20:17:19.212Z,97517.20
2018-02-08T20:19:48.305Z,97513.86
2018-02-08T20:22:16.539Z,97516.34
2018-02-08T20:24:44.578Z,97513.86
2018-02-08T20:27:12.798Z,97512.17
2018-02-08T20:29:41.790Z,97515.09
2018-02-08T20:32:09.956Z,97513.41
2018-02-08T20:34:38.374Z,97510.91
2018-02-08T20:37:06.367Z,97512.99
2018-02-08T20:39:34.717Z,97514.22
2018-02-08T20:42:02.891Z,97511.71
2018-02-08T20:44:30.867Z,97510.89
2018-02-08T20:46:59.443Z,97510.03
2018-02-08T20:49:27.412Z,97514.19
2018-02-08T20:51:55.184Z,97508.34
2018-02-08T20:54:23.557Z,97524.61
2018-02-08T20:56:51.423Z,97523.37
2018-02-08T20:59:19.292Z,97521.65
2018-02-08T21:01:47.381Z,97516.66
2018-02-08T21:04:15.354Z,97518.75
2018-02-08T21:06:44.918Z,97516.20
2018-02-08T21:09:14.035Z,97524.56
2018-02-08T21:11:42.549Z,97520.78
2018-02-08T21:14:10.441Z,97512.02
2018-02-08T21:16:39.329Z,97499.97
2018-02-08T21:19:08.445Z,97497.97
2018-02-08T21:21:36.544Z,97497.52
2018-02-08T21:24:04.408Z,97499.20
2018-02-08T21:26:32.271Z,97499.64
2018-02-08T21:29:00.241Z,97489.67
2018-02-08T21:31:28.453Z,97492.17
2018-02-08T21:33:56.246Z,97488.43
2018-02-08T21:36:24.112Z,97488.41
2018-02-08T21:38:52.014Z,97488.77
2018-02-08T21:41:19.844Z,97477.95
2018-02-08T21:43:47.951Z,97483.76
2018-02-08T21:46:15.600Z,97480.79
2018-02-08T21:48:43.345Z,97481.70
2018-02-08T21:51:11.346Z,97477.97
2018-02-08T21:53:38.930Z,97478.37
2018-02-08T21:56:06.759Z,97467.06
2018-02-08T21:58:34.433Z,97468.30
2018-02-08T22:01:02.040Z,97470.94
2018-02-08T22:03:30.389Z,97475.03
2018-02-08T22:05:57.950Z,97469.99
2018-02-08T22:08:25.698Z,97464.52
2018-02-08T22:10:53.269Z,97467.39
2018-02-08T22:13:20.801Z,97471.52
2018-02-08T22:15:48.358Z,97472.42
2018-02-08T22:18:16.853Z,97468.18
2018-02-08T22:20:44.770Z,97467.70
2018-02-08T22:23:12.384Z,97470.19
2018-02-08T22:25:39.935Z,97460.55
2018-02-08T22:28:07.481Z,97466.38
2018-02-08T22:30:35.490Z,97463.97
2018-02-08T22:33:03.037Z,97461.39
2018-02-08T22:35:30.557Z,97458.86
2018-02-08T22:37:58.082Z,97459.22
2018-02-08T22:40:25.705Z,97462.11
2018-02-08T22:42:53.261Z,97465.13
2018-02-08T22:45:20.821Z,97467.66
2018-02-08T22:47:48.793Z,97460.52
2018-02-08T22:50:16.343Z,97467.61
2018-02-08T22:52:46.736Z,97467.98
2018-02-08T22:55:14.261Z,97475.09
2018-02-08T22:57:42.311Z,97467.16
2018-02-08T23:00:09.850Z,97463.66
2018-02-08T23:02:37.396Z,97463.55
2018-02-08T23:05:05.090Z,97450.13
2018-02-08T23:07:32.678Z,97464.29
2018-02-08T23:10:00.397Z,97458.48
2018-02-08T23:12:27.917Z,97452.20
2018-02-08T23:14:55.438Z,97450.52
2018-02-08T23:17:22.990Z,97456.73
2018-02-08T23:19:50.521Z,97454.73
2018-02-08T23:22:18.082Z,97455.56
2018-02-08T23:24:45.665Z,97452.53
2018-02-08T23:27:13.165Z,97452.08
2018-02-08T23:29:40.712Z,97456.66
2018-02-08T23:32:08.267Z,97455.02
2018-02-08T23:34:36.091Z,97459.54
2018-02-08T23:37:03.612Z,97455.37
2018-02-08T23:39:31.142Z,97452.03
2018-02-08T23:42:01.036Z,97444.96
2018-02-08T23:44:28.585Z,97446.12
2018-02-08T23:46:56.399Z,97451.59
2018-02-08T23:49:25.353Z,97449.39
2018-02-08T23:51:53.629Z,97448.93
2018-02-08T23:54:21.217Z,97448.56
2018-02-08T23:56:48.739Z,97446.48
2018-02-08T23:59:16.432Z,97444.97
